< < Back
Terminal Aerodrome Forecast


Current Version              Previous Versions:   1  2  3  4  5  6  7  8  9  

Terminal Aerodrome Forecast

468
FTUS42 KCHS 040150 AAB
TAFCHS
TAF AMD
KCHS 040150Z 0402/0424 24010KT P6SM SCT025 BKN080
      TEMPO 0402/0404 26025G40KT 1SM +TSRA BR SCT015 BKN035CB
     FM040500 25006KT P6SM VCSH FEW015 SCT035 BKN080
     FM041200 28008KT P6SM SCT015 BKN050
     FM041800 26010G15KT P6SM BKN060=

Latest METAR

375
SAUS80 KWBC 042300 RRB
MTRCHS
METAR KCHS 042256Z 27010KT 10SM FEW200 25/06 A2962 RMK AO2 SLP028
T02500056


USA.gov is the U.S. government's official web portal to all federal, state and local government web resources and services.